WetterOnline ( https://www.wetteronline.de )

Wetter aktuell Hinterzarten

Aktuelles Wetter: Feldberg/Schwarzwald (1493m)

6-stündlich | Neueste Meldungen
Ortszeit Temperatur Wetter
Mi, 22.01. 13:00 7.5° C fast wolkenlos
Mi, 22.01. 7:00 7.3° C wolkenlos
Mi, 22.01. 1:00 6.3° C wolkenlos
Di, 21.01. 19:00 4.9° C wolkenlos
Di, 21.01. 13:00 3.1° C wolkenlos
Di, 21.01. 7:00 1.5° C wolkenlos
Di, 21.01. 1:00 -7.0° C leichter Schneefall
Mo, 20.01. 19:00 -7.0° C Nebel
Ortszeit Temperatur Wetter
Mi, 22.01. 17:30 5.0° C fast wolkenlos
Mi, 22.01. 17:20 5.0° C fast wolkenlos
Mi, 22.01. 17:10 5.7° C fast wolkenlos
Mi, 22.01. 17:00 7.0° C fast wolkenlos
Mi, 22.01. 16:50 7.0° C fast wolkenlos
Mi, 22.01. 16:40 7.0° C wolkenlos
Mi, 22.01. 16:30 6.7° C wolkenlos
Mi, 22.01. 16:00 6.5° C wolkenlos
Mi, 22.01. 15:30 6.5° C wolkenlos
Mi, 22.01. 15:00 7.1° C fast wolkenlos
Mi, 22.01. 14:30 6.8° C wolkenlos
Mi, 22.01. 14:00 7.6° C fast wolkenlos
Ortszeit Relative Feuchte Sichtweite
Mi, 22.01. 13:00 30% 65 km
Mi, 22.01. 7:00 26% >70 km
Mi, 22.01. 1:00 25% >70 km
Di, 21.01. 19:00 14% >70 km
Di, 21.01. 13:00 13% 65 km
Di, 21.01. 7:00 18% >70 km
Di, 21.01. 1:00 84% 65 km
Mo, 20.01. 19:00 92% <100 m
Ortszeit Relative Feuchte Sichtweite
Mi, 22.01. 17:30 22% >70 km
Mi, 22.01. 17:20 22% -
Mi, 22.01. 17:10 20% -
Mi, 22.01. 17:00 22% >70 km
Mi, 22.01. 16:50 22% -
Mi, 22.01. 16:40 23% -
Mi, 22.01. 16:30 24% >70 km
Mi, 22.01. 16:00 26% 55 km
Mi, 22.01. 15:30 31% >70 km
Mi, 22.01. 15:00 31% >70 km
Mi, 22.01. 14:30 32% 50 km
Mi, 22.01. 14:00 30% 45 km
Ortszeit Niederschlagsmenge Niederschlagsart
Mi, 22.01. 13:00 0.0 l/m2 in 6 Std. -
Mi, 22.01. 7:00 0.0 l/m2 in 12 Std. -
Mi, 22.01. 1:00 0.0 l/m2 in 6 Std. -
Di, 21.01. 19:00 0.0 l/m2 in 12 Std. -
Di, 21.01. 13:00 0.0 l/m2 in 6 Std. -
Di, 21.01. 7:00 0.0 l/m2 in 12 Std. -
Di, 21.01. 1:00 0.1 l/m2 in 6 Std. Schnee
Mo, 20.01. 19:00 0.1 l/m2 in 12 Std. Schnee
Ortszeit Niederschlagsmenge Niederschlagsart
Mi, 22.01. 17:30 0.0 l/m2 in 1 Std. -
Mi, 22.01. 17:20 keine Meldung -
Mi, 22.01. 17:10 keine Meldung -
Mi, 22.01. 17:00 0.0 l/m2 in 1 Std. -
Mi, 22.01. 16:50 keine Meldung -
Mi, 22.01. 16:40 keine Meldung -
Mi, 22.01. 16:30 0.0 l/m2 in 1 Std. -
Mi, 22.01. 16:00 0.0 l/m2 in 1 Std. -
Mi, 22.01. 15:30 0.0 l/m2 in 1 Std. -
Mi, 22.01. 15:00 0.0 l/m2 in 1 Std. -
Mi, 22.01. 14:30 0.0 l/m2 in 1 Std. -
Mi, 22.01. 14:00 0.0 l/m2 in 1 Std. -
Ortszeit Stärke Spitze Richtung
km/h Bft. km/h Grad Sektor
Mi, 22.01. 13:00 13 3 19 200° S
Mi, 22.01. 7:00 7 2 22 200° S
Mi, 22.01. 1:00 20 4 30 90° O
Di, 21.01. 19:00 22 4 43 110° O
Di, 21.01. 13:00 32 5 43 80° O
Di, 21.01. 7:00 33 5 48 100° O
Di, 21.01. 1:00 47 6 83 130° SO
Mo, 20.01. 19:00 52 7 74 80° O
Ortszeit Stärke Spitze Richtung
km/h Bft. km/h Grad Sektor
Mi, 22.01. 17:30 18 3 22 110° O
Mi, 22.01. 17:20 18 3 - 110° O
Mi, 22.01. 17:10 18 3 - 110° O
Mi, 22.01. 17:00 14 3 18 100° O
Mi, 22.01. 16:50 14 3 - 100° O
Mi, 22.01. 16:40 14 3 - 100° O
Mi, 22.01. 16:30 13 3 15 80° O
Mi, 22.01. 16:00 14 3 18 90° O
Mi, 22.01. 15:30 9 2 13 70° O
Mi, 22.01. 15:00 4 1 7 60° NO
Mi, 22.01. 14:30 6 1 7 70° O
Mi, 22.01. 14:00 4 1 14 280° W
Ortszeit Untergrenze Bedeckung Gattung
total tief tief mittel hoch
Mi, 22.01. 13:00 10500 m 1/8 0/8 - - -
Mi, 22.01. 7:00 - 0/8 0/8 - - -
Mi, 22.01. 1:00 12000 m 0/8 0/8 - - -
Di, 21.01. 19:00 - 0/8 0/8 - - -
Di, 21.01. 13:00 - 0/8 0/8 - - -
Di, 21.01. 7:00 - 0/8 0/8 - - -
Di, 21.01. 1:00 - 0/8 0/8 - - -
Mo, 20.01. 19:00 <30 m 7/8 0/8 - - -
Ortszeit Bedeckungsgrad in Achtel und Wolkenuntergrenze
Mi, 22.01. 17:30 1(10500m)
Mi, 22.01. 17:20 1(10500m)
Mi, 22.01. 17:10 1(10500m)
Mi, 22.01. 17:00 1(10500m)
Mi, 22.01. 16:50 1(10500m)
Mi, 22.01. 16:40 keine Wolken
Mi, 22.01. 16:30 keine Wolken
Mi, 22.01. 16:00 keine Wolken
Mi, 22.01. 15:30 keine Wolken
Mi, 22.01. 15:00 1(12000m)
Mi, 22.01. 14:30 2(12000m)
Mi, 22.01. 14:00 1(10500m)
Ortszeit Stationsdruck (hPa) Tendenz (hPa in 3 Std.)
Mi, 22.01. 13:00 861 - 0,5
Mi, 22.01. 7:00 861 - 0,8
Mi, 22.01. 1:00 862 - 0,5
Di, 21.01. 19:00 863 - 0,7
Di, 21.01. 13:00 865 - 0,5
Di, 21.01. 7:00 865 + 0,4
Di, 21.01. 1:00 864 + 0,7
Mo, 20.01. 19:00 863 - 0,8
Ortszeit Stationsdruck (hPa) Tendenz (hPa in 3 Std.)
Mi, 22.01. 17:30 860 - 0,4
Mi, 22.01. 17:20 860 keine Meldung
Mi, 22.01. 17:10 860 keine Meldung
Mi, 22.01. 17:00 860 - 0,5
Mi, 22.01. 16:50 860 keine Meldung
Mi, 22.01. 16:40 860 keine Meldung
Mi, 22.01. 16:30 860 - 0,7
Mi, 22.01. 16:00 860 - 0,7
Mi, 22.01. 15:30 860 - 0,8
Mi, 22.01. 15:00 860 - 1,0
Mi, 22.01. 14:30 860 - 0,9
Mi, 22.01. 14:00 861 - 0,9
Ortszeit Schneehöhe (cm)
Mi, 22.01. 13:00 64
Mi, 22.01. 7:00 64
Mi, 22.01. 1:00 64
Di, 21.01. 19:00 65
Di, 21.01. 13:00 66
Di, 21.01. 7:00 65
Di, 21.01. 1:00 65
Mo, 20.01. 19:00 65
Ortszeit Schneehöhe (cm)
Mi, 22.01. 17:30 64
Mi, 22.01. 17:20 64
Mi, 22.01. 17:10 64
Mi, 22.01. 17:00 64
Mi, 22.01. 16:50 64
Mi, 22.01. 16:40 64
Mi, 22.01. 16:30 64
Mi, 22.01. 16:00 64
Mi, 22.01. 15:30 64
Mi, 22.01. 15:00 64
Mi, 22.01. 14:30 64
Mi, 22.01. 14:00 64
Link zu dieser Seite / Seite empfehlen

Das Wetter in ...